Time;durP1;ratioP1;P1;durP2;ratioP2;P2;SDS_P1;SDS_P2;PMS_P1;PMS_P2;Temp;Humidity;BMP_temperature;BMP_pressure;BME280_temperature;BME280_humidity;BME280_pressure;Samples;Min_cycle;Max_cycle;Signal;HPM_P1;HPM_P2
2023/10/04 00:01:09;;;;;;;13.90;2.60;;;13.10;99.90;;;;;;5075729;28;20043;-48
2023/10/04 00:03:36;;;;;;;14.20;2.60;;;13.00;99.90;;;;;;5093479;28;20032;-46
2023/10/04 00:06:02;;;;;;;15.10;2.33;;;13.00;99.90;;;;;;5093580;28;20047;-47
2023/10/04 00:08:29;;;;;;;13.52;2.53;;;13.00;99.90;;;;;;5093229;28;20036;-46
2023/10/04 00:10:55;;;;;;;17.17;2.85;;;13.10;99.90;;;;;;5092156;28;20100;-45
2023/10/04 00:13:21;;;;;;;14.93;3.03;;;13.10;99.90;;;;;;5093346;28;20079;-47
2023/10/04 00:15:47;;;;;;;20.92;3.00;;;13.00;99.90;;;;;;5093396;28;20076;-47
2023/10/04 00:18:15;;;;;;;15.82;2.50;;;13.00;99.90;;;;;;5093182;28;20139;-46
2023/10/04 00:20:41;;;;;;;16.47;2.70;;;13.00;99.90;;;;;;5092825;28;20083;-47
2023/10/04 00:23:08;;;;;;;18.20;3.03;;;13.00;99.90;;;;;;5074940;28;20044;-48
2023/10/04 00:25:34;;;;;;;18.65;3.30;;;13.00;99.90;;;;;;5091240;28;20048;-47
2023/10/04 00:28:02;;;;;;;13.35;2.60;;;12.90;99.90;;;;;;5093218;28;20090;-46
2023/10/04 00:30:29;;;;;;;14.38;2.40;;;12.90;99.90;;;;;;5092893;28;20040;-47
2023/10/04 00:32:57;;;;;;;12.23;3.72;;;12.90;99.90;;;;;;5093044;28;20039;-48
2023/10/04 00:35:23;;;;;;;15.52;2.90;;;12.90;99.90;;;;;;5092835;28;20440;-48
2023/10/04 00:37:55;;;;;;;14.32;2.58;;;12.90;99.90;;;;;;5092876;28;20036;-49
2023/10/04 00:40:24;;;;;;;15.82;2.70;;;12.90;99.90;;;;;;5092512;28;20051;-47
2023/10/04 00:42:50;;;;;;;25.30;2.67;;;12.90;99.90;;;;;;5092576;28;20043;-48
2023/10/04 00:45:16;;;;;;;9.57;2.35;;;12.90;99.90;;;;;;5092836;28;20036;-47
2023/10/04 00:47:53;;;;;;;10.27;2.67;;;12.90;99.90;;;;;;5092535;28;20093;-48
2023/10/04 00:50:29;;;;;;;13.02;2.80;;;12.90;99.90;;;;;;5092532;28;20477;-47
2023/10/04 00:53:14;;;;;;;8.55;2.47;;;12.80;99.90;;;;;;5092474;28;20040;-47
2023/10/04 00:55:45;;;;;;;14.23;2.63;;;12.80;99.90;;;;;;5092452;28;20051;-49
2023/10/04 00:58:13;;;;;;;11.77;2.28;;;12.70;99.90;;;;;;5092322;28;20562;-47
2023/10/04 01:00:41;;;;;;;14.80;2.17;;;12.70;99.90;;;;;;5092231;28;20097;-47
2023/10/04 01:03:10;;;;;;;9.90;2.13;;;12.70;99.90;;;;;;5092153;28;20031;-50
2023/10/04 01:05:44;;;;;;;;;;;12.60;99.90;;;;;;5092975;28;20110;-47
2023/10/04 01:08:10;;;;;;;14.18;2.88;;;12.60;99.90;;;;;;5079253;28;20018;-47
2023/10/04 01:10:38;;;;;;;13.60;2.60;;;12.60;99.90;;;;;;5092295;28;20107;-47
2023/10/04 01:13:09;;;;;;;13.13;2.30;;;12.50;99.90;;;;;;5092022;28;20043;-50
2023/10/04 01:15:42;;;;;;;13.25;2.47;;;12.50;99.90;;;;;;5092501;28;20035;-46
2023/10/04 01:18:11;;;;;;;11.95;2.60;;;12.50;99.90;;;;;;5092042;28;20036;-47
2023/10/04 01:20:40;;;;;;;15.05;2.50;;;12.50;99.90;;;;;;5091814;28;20483;-44
2023/10/04 01:23:10;;;;;;;10.20;2.60;;;12.50;99.90;;;;;;5091836;28;20479;-46
2023/10/04 01:25:41;;;;;;;17.63;2.50;;;12.40;99.90;;;;;;5092171;28;20040;-48
2023/10/04 01:28:17;;;;;;;16.05;3.10;;;12.40;99.90;;;;;;5091693;28;20036;-47
2023/10/04 01:30:45;;;;;;;17.60;2.53;;;12.50;99.90;;;;;;5091965;28;20055;-47
2023/10/04 01:33:18;;;;;;;9.70;2.30;;;12.50;99.90;;;;;;5091674;28;20510;-46
2023/10/04 01:35:45;;;;;;;12.85;2.70;;;12.50;99.90;;;;;;5091956;28;20564;-46
2023/10/04 01:38:13;;;;;;;12.02;2.80;;;12.40;99.90;;;;;;5091894;28;20078;-47
2023/10/04 01:40:39;;;;;;;17.05;2.95;;;12.50;99.90;;;;;;5091810;28;20039;-45
2023/10/04 01:43:17;;;;;;;15.75;2.78;;;12.50;99.90;;;;;;5092402;28;20036;-46
2023/10/04 01:45:48;;;;;;;11.75;2.65;;;12.40;99.90;;;;;;5091668;28;20050;-48
2023/10/04 01:48:16;;;;;;;14.40;2.72;;;12.50;99.90;;;;;;5091412;28;20032;-47
2023/10/04 01:50:43;;;;;;;14.98;3.17;;;12.50;99.90;;;;;;5091661;28;20039;-47
2023/10/04 01:53:09;;;;;;;12.02;2.55;;;12.50;99.90;;;;;;5091402;28;20039;-47
2023/10/04 01:55:36;;;;;;;19.45;3.03;;;12.50;99.90;;;;;;5091501;28;20545;-48
2023/10/04 01:58:02;;;;;;;16.40;3.15;;;12.40;99.90;;;;;;5091487;28;20042;-47
2023/10/04 02:00:28;;;;;;;12.27;2.88;;;12.40;99.90;;;;;;5091548;28;20032;-46
2023/10/04 02:02:54;;;;;;;15.00;2.42;;;12.40;99.90;;;;;;5091338;28;20456;-48
2023/10/04 02:05:26;;;;;;;10.10;2.65;;;12.50;99.90;;;;;;5091233;28;20474;-48
2023/10/04 02:07:53;;;;;;;12.45;2.63;;;12.40;99.90;;;;;;5091680;28;20032;-45
2023/10/04 02:10:19;;;;;;;12.95;2.63;;;12.40;99.90;;;;;;5091581;28;20047;-47
2023/10/04 02:12:45;;;;;;;15.60;2.60;;;12.40;99.90;;;;;;5073478;28;20044;-49
2023/10/04 02:15:15;;;;;;;10.45;2.75;;;12.40;99.90;;;;;;5091209;28;20528;-48
2023/10/04 02:17:44;;;;;;;20.42;2.85;;;12.40;99.90;;;;;;5091384;28;20048;-46
2023/10/04 02:20:23;;;;;;;13.73;2.80;;;12.40;99.90;;;;;;5090934;28;20123;-46
2023/10/04 02:22:50;;;;;;;9.10;2.25;;;12.40;99.90;;;;;;5091532;28;20476;-45
2023/10/04 02:25:17;;;;;;;13.23;2.65;;;12.40;99.90;;;;;;5091313;28;20032;-46
2023/10/04 02:27:49;;;;;;;12.90;2.67;;;12.40;99.90;;;;;;5091199;28;20497;-45
2023/10/04 02:30:26;;;;;;;11.02;2.85;;;12.40;99.90;;;;;;5091140;28;20105;-47
2023/10/04 02:32:53;;;;;;;15.88;3.47;;;12.40;99.90;;;;;;5091364;28;20090;-48
2023/10/04 02:35:34;;;;;;;14.02;3.45;;;12.30;99.90;;;;;;5094757;28;20059;-45
2023/10/04 02:38:00;;;;;;;14.65;2.85;;;12.30;99.90;;;;;;5095203;28;20051;-52
2023/10/04 02:40:32;;;;;;;13.15;2.53;;;12.30;99.90;;;;;;5094966;28;20115;-46
2023/10/04 02:42:59;;;;;;;12.25;3.08;;;12.30;99.90;;;;;;5095028;28;20059;-46
2023/10/04 02:45:26;;;;;;;12.65;2.63;;;12.30;99.90;;;;;;5095240;28;20044;-45
2023/10/04 02:47:53;;;;;;;12.57;2.70;;;12.30;99.90;;;;;;5095038;28;20039;-45
2023/10/04 02:50:21;;;;;;;13.75;2.80;;;12.30;99.90;;;;;;5095036;28;20044;-45
2023/10/04 02:52:47;;;;;;;9.52;1.98;;;12.20;99.90;;;;;;5094657;28;20036;-45
2023/10/04 02:55:17;;;;;;;12.65;2.72;;;12.20;99.90;;;;;;5094926;28;20050;-47
2023/10/04 02:57:42;;;;;;;14.13;2.22;;;12.30;99.90;;;;;;5094490;28;20043;-50
2023/10/04 03:00:15;;;;;;;11.82;3.10;;;12.30;99.90;;;;;;5094771;28;20039;-47
2023/10/04 03:02:42;;;;;;;8.23;2.42;;;12.30;99.90;;;;;;5094488;28;20040;-49
2023/10/04 03:05:09;;;;;;;15.90;2.70;;;12.40;99.90;;;;;;5094566;28;20093;-46
2023/10/04 03:07:34;;;;;;;16.67;2.90;;;12.40;99.90;;;;;;5094594;28;20111;-47
2023/10/04 03:10:00;;;;;;;13.25;2.75;;;12.40;99.90;;;;;;5094453;28;20111;-48
2023/10/04 03:12:27;;;;;;;11.90;2.75;;;12.40;99.90;;;;;;5094301;28;20107;-49
2023/10/04 03:14:52;;;;;;;15.57;3.45;;;12.40;99.90;;;;;;5094525;28;20055;-48
2023/10/04 03:17:19;;;;;;;11.30;2.33;;;12.40;99.90;;;;;;5094516;28;20036;-48
2023/10/04 03:19:47;;;;;;;11.23;3.40;;;12.40;99.90;;;;;;5094412;28;20458;-47
2023/10/04 03:22:18;;;;;;;12.02;2.42;;;12.40;99.90;;;;;;5094122;28;20055;-50
2023/10/04 03:24:45;;;;;;;11.88;3.28;;;12.40;99.90;;;;;;5094141;28;20589;-48
2023/10/04 03:27:12;;;;;;;16.55;2.55;;;12.40;99.90;;;;;;5094272;28;20107;-46
2023/10/04 03:29:39;;;;;;;18.38;2.80;;;12.40;99.90;;;;;;5094321;28;20032;-50
2023/10/04 03:32:05;;;;;;;9.18;2.50;;;12.30;99.90;;;;;;5093978;28;20089;-47
2023/10/04 03:34:31;;;;;;;17.67;3.53;;;12.30;99.90;;;;;;5094186;28;20374;-48
2023/10/04 03:37:08;;;;;;;11.73;2.47;;;12.30;99.90;;;;;;5093945;28;20117;-47
2023/10/04 03:39:35;;;;;;;12.75;2.10;;;12.30;99.90;;;;;;5094171;28;20101;-46
2023/10/04 03:42:01;;;;;;;14.07;2.17;;;12.20;99.90;;;;;;5093896;28;20115;-47
2023/10/04 03:44:27;;;;;;;9.15;2.72;;;12.20;99.90;;;;;;5093640;28;20153;-45
2023/10/04 03:46:55;;;;;;;11.32;2.75;;;12.30;99.90;;;;;;5093654;28;20040;-45
2023/10/04 03:49:23;;;;;;;11.38;2.72;;;12.30;99.90;;;;;;5093806;28;20036;-49
2023/10/04 03:51:49;;;;;;;9.85;2.42;;;12.30;99.90;;;;;;5093488;28;20050;-49
2023/10/04 03:54:15;;;;;;;15.55;2.65;;;12.40;99.90;;;;;;5093828;28;20036;-49
2023/10/04 03:56:41;;;;;;;13.07;2.58;;;12.40;99.90;;;;;;5093617;28;20456;-46
2023/10/04 03:59:08;;;;;;;14.10;3.05;;;12.40;99.90;;;;;;5093483;28;20036;-48
2023/10/04 04:01:34;;;;;;;9.25;2.60;;;12.40;99.90;;;;;;5093584;28;20044;-48
2023/10/04 04:04:03;;;;;;;12.13;3.28;;;12.40;99.90;;;;;;5093415;28;20496;-48
2023/10/04 04:06:30;;;;;;;11.02;2.58;;;12.40;99.90;;;;;;5093497;28;20089;-47
2023/10/04 04:08:58;;;;;;;7.75;2.60;;;12.30;99.90;;;;;;5093318;28;20040;-46
2023/10/04 04:11:24;;;;;;;9.77;2.35;;;12.40;99.90;;;;;;5093333;28;20468;-46
2023/10/04 04:13:49;;;;;;;11.93;3.30;;;12.30;99.90;;;;;;5093255;28;20389;-47
2023/10/04 04:16:17;;;;;;;8.07;2.60;;;12.30;99.90;;;;;;5093214;28;20040;-46
2023/10/04 04:18:44;;;;;;;9.85;2.33;;;12.30;99.90;;;;;;5093140;28;20101;-47
2023/10/04 04:21:10;;;;;;;13.00;2.80;;;12.30;99.90;;;;;;5092947;28;20558;-47
2023/10/04 04:23:36;;;;;;;9.95;2.35;;;12.30;99.90;;;;;;5093109;28;20033;-47
2023/10/04 04:26:06;;;;;;;12.50;2.65;;;12.20;99.90;;;;;;5093085;28;20115;-48
2023/10/04 04:28:36;;;;;;;19.85;3.13;;;12.20;99.90;;;;;;5093016;28;20565;-45
2023/10/04 04:31:14;;;;;;;12.63;2.72;;;12.20;99.90;;;;;;5092868;28;20491;-46
2023/10/04 04:33:40;;;;;;;11.30;2.53;;;12.10;99.90;;;;;;5092755;28;20051;-47
2023/10/04 04:36:10;;;;;;;12.82;2.60;;;12.10;99.90;;;;;;5092778;28;20481;-47
2023/10/04 04:38:38;;;;;;;15.35;2.80;;;12.10;99.90;;;;;;5092641;28;20096;-48
2023/10/04 04:41:11;;;;;;;11.65;2.55;;;12.10;99.90;;;;;;5092588;28;20134;-47
2023/10/04 04:43:37;;;;;;;15.13;2.80;;;12.10;99.90;;;;;;5092756;28;20075;-47
2023/10/04 04:46:13;;;;;;;13.13;2.90;;;12.00;99.90;;;;;;5092502;28;20107;-49
2023/10/04 04:48:40;;;;;;;13.85;2.95;;;12.00;99.90;;;;;;5092340;28;20486;-49
2023/10/04 04:53:36;;;;;;;12.35;2.55;;;12.10;99.90;;;;;;5092238;28;20520;-49
2023/10/04 04:56:02;;;;;;;12.48;2.72;;;12.10;99.90;;;;;;5092027;28;20112;-48
2023/10/04 04:58:28;;;;;;;8.50;2.50;;;12.20;99.90;;;;;;5092121;28;20111;-51
2023/10/04 05:01:02;;;;;;;11.02;3.00;;;12.10;99.90;;;;;;5092469;28;20048;-49
2023/10/04 05:03:28;;;;;;;13.20;3.53;;;12.10;99.90;;;;;;5092121;28;20449;-47
2023/10/04 05:05:58;;;;;;;16.08;2.80;;;12.20;99.90;;;;;;5092414;28;20119;-50
2023/10/04 05:08:26;;;;;;;15.05;2.95;;;12.10;99.90;;;;;;5092255;28;20036;-48
2023/10/04 05:10:57;;;;;;;;;;;12.10;99.90;;;;;;5092915;28;20393;-47
2023/10/04 05:13:22;;;;;;;15.57;2.85;;;12.10;99.90;;;;;;5092334;28;19955;-46
2023/10/04 05:15:49;;;;;;;15.43;3.10;;;12.20;99.90;;;;;;5092128;28;20082;-48
2023/10/04 05:18:16;;;;;;;11.80;2.88;;;12.20;99.90;;;;;;5091960;28;20392;-49
2023/10/04 05:20:50;;;;;;;18.15;3.30;;;12.20;99.90;;;;;;5091848;28;20122;-46
2023/10/04 05:23:17;;;;;;;14.57;3.10;;;12.20;99.90;;;;;;5092111;28;20044;-50
2023/10/04 05:25:43;;;;;;;16.95;3.45;;;12.30;99.90;;;;;;5091887;28;20044;-48
2023/10/04 05:28:11;;;;;;;15.35;3.10;;;12.20;99.90;;;;;;5092418;28;20197;-51
2023/10/04 05:30:38;;;;;;;12.77;3.10;;;12.20;99.90;;;;;;5091916;28;20477;-46
2023/10/04 05:33:08;;;;;;;20.05;3.38;;;12.20;99.90;;;;;;5092127;28;20388;-47
2023/10/04 05:35:37;;;;;;;11.55;2.97;;;12.10;99.90;;;;;;5091905;28;20040;-46
2023/10/04 05:38:04;;;;;;;11.95;2.75;;;12.20;99.90;;;;;;5091753;28;20043;-50
2023/10/04 05:40:43;;;;;;;10.77;3.00;;;12.20;99.90;;;;;;5091728;28;20093;-49
2023/10/04 05:43:10;;;;;;;8.60;2.42;;;12.20;99.90;;;;;;5091832;28;20489;-46
2023/10/04 05:45:36;;;;;;;13.60;2.60;;;12.20;99.90;;;;;;5091794;28;20043;-49
2023/10/04 05:48:05;;;;;;;8.95;2.33;;;12.20;99.90;;;;;;5091989;28;20059;-50
2023/10/04 05:50:32;;;;;;;14.65;3.03;;;12.30;99.90;;;;;;5091478;28;20036;-50
2023/10/04 05:53:01;;;;;;;11.98;3.00;;;12.30;99.90;;;;;;5091832;28;20036;-47
2023/10/04 05:55:27;;;;;;;17.52;3.40;;;12.30;99.90;;;;;;5091611;28;20636;-47
2023/10/04 05:57:53;;;;;;;21.05;3.55;;;12.30;99.90;;;;;;5073770;28;20101;-47
2023/10/04 06:02:53;;;;;;;13.75;3.20;;;12.30;99.90;;;;;;5091679;28;20074;-46
2023/10/04 06:05:23;;;;;;;9.70;2.50;;;12.30;99.90;;;;;;5091295;28;20052;-46
2023/10/04 06:07:56;;;;;;;12.10;3.47;;;12.30;99.90;;;;;;5091731;28;20105;-45
2023/10/04 06:10:24;;;;;;;16.02;3.13;;;12.30;99.90;;;;;;5095423;28;20115;-47
2023/10/04 06:12:54;;;;;;;11.23;3.08;;;12.30;99.90;;;;;;5095737;28;20389;-47
2023/10/04 06:15:20;;;;;;;12.88;3.28;;;12.30;99.90;;;;;;5095576;28;20409;-48
2023/10/04 06:17:50;;;;;;;14.10;3.08;;;12.30;99.90;;;;;;5095332;28;20035;-44
2023/10/04 06:20:33;;;;;;;12.85;3.50;;;12.30;99.90;;;;;;5095442;28;20390;-45
2023/10/04 06:23:00;;;;;;;16.15;3.58;;;12.30;99.90;;;;;;5095229;28;20109;-46
2023/10/04 06:25:27;;;;;;;11.18;3.17;;;12.40;99.90;;;;;;5095414;28;20404;-46
2023/10/04 06:27:56;;;;;;;18.25;3.75;;;12.40;99.90;;;;;;5095200;28;20031;-46
2023/10/04 06:30:27;;;;;;;11.52;3.25;;;12.40;99.90;;;;;;5095262;28;20040;-45
2023/10/04 06:32:55;;;;;;;15.75;3.88;;;12.50;99.90;;;;;;5095435;28;20100;-47
2023/10/04 06:35:24;;;;;;;32.30;4.45;;;12.50;99.90;;;;;;5095321;28;20035;-47
2023/10/04 06:37:51;;;;;;;23.08;3.75;;;12.60;99.90;;;;;;5095155;28;20056;-49
2023/10/04 06:40:19;;;;;;;21.08;4.10;;;12.60;99.90;;;;;;5095103;28;20115;-47
2023/10/04 06:42:49;;;;;;;19.00;4.80;;;12.60;99.90;;;;;;5094889;28;20119;-47
2023/10/04 06:45:19;;;;;;;11.95;3.33;;;12.70;99.90;;;;;;5094602;28;20152;-50
2023/10/04 06:47:47;;;;;;;16.50;4.00;;;12.70;99.90;;;;;;5095143;28;20039;-48
2023/10/04 06:50:18;;;;;;;15.90;3.38;;;12.70;99.90;;;;;;5094772;28;20150;-48
2023/10/04 06:52:51;;;;;;;12.98;3.15;;;12.80;99.90;;;;;;5094963;28;20043;-48
2023/10/04 06:55:20;;;;;;;17.92;3.42;;;12.90;99.90;;;;;;5094727;28;20048;-47
2023/10/04 06:57:47;;;;;;;;;;;12.90;99.90;;;;;;5095461;28;20040;-46
2023/10/04 07:00:15;;;;;;;10.32;3.22;;;13.00;99.90;;;;;;5095077;28;19920;-45
2023/10/04 07:02:54;;;;;;;14.38;4.53;;;13.10;99.90;;;;;;5094659;28;20040;-46
2023/10/04 07:05:29;;;;;;;13.55;3.58;;;13.20;99.90;;;;;;5094677;28;20036;-46
2023/10/04 07:07:57;;;;;;;17.13;4.30;;;13.20;99.90;;;;;;5076736;28;20036;-47
2023/10/04 07:10:27;;;;;;;9.20;3.75;;;13.40;99.90;;;;;;5094715;28;20063;-46
2023/10/04 07:12:55;;;;;;;10.95;3.30;;;13.50;99.90;;;;;;5094677;28;20032;-44
2023/10/04 07:15:21;;;;;;;26.53;4.33;;;13.70;99.90;;;;;;5094605;28;20071;-45
2023/10/04 07:17:47;;;;;;;15.32;3.53;;;14.00;99.90;;;;;;5094405;28;20036;-46
2023/10/04 07:20:15;;;;;;;15.10;3.92;;;14.20;99.90;;;;;;5079278;28;20397;-47
2023/10/04 07:22:59;;;;;;;10.77;3.50;;;14.50;99.90;;;;;;5094434;28;20469;-47
2023/10/04 07:25:32;;;;;;;13.68;3.75;;;14.70;99.90;;;;;;5094588;28;20086;-46
2023/10/04 07:28:03;;;;;;;17.33;3.75;;;14.90;99.90;;;;;;5094386;28;20085;-46
2023/10/04 07:30:30;;;;;;;12.98;3.88;;;15.10;99.90;;;;;;5080265;28;20036;-46
2023/10/04 07:32:59;;;;;;;16.15;3.53;;;15.30;99.90;;;;;;5094327;28;20093;-47
2023/10/04 07:35:26;;;;;;;9.90;3.15;;;15.60;99.90;;;;;;5094261;28;20043;-46
2023/10/04 07:37:53;;;;;;;10.77;3.60;;;15.80;99.90;;;;;;5093986;28;20504;-46
2023/10/04 07:40:23;;;;;;;15.25;4.28;;;15.90;99.90;;;;;;5093917;28;20040;-48
2023/10/04 07:42:52;;;;;;;16.20;4.18;;;16.10;99.90;;;;;;5093941;28;20051;-48
2023/10/04 07:45:18;;;;;;;14.32;4.43;;;16.30;99.90;;;;;;5093739;28;20115;-49
2023/10/04 07:47:45;;;;;;;13.77;3.85;;;16.60;99.90;;;;;;5094002;28;20111;-47
2023/10/04 07:50:15;;;;;;;10.73;3.85;;;16.80;99.90;;;;;;5093502;28;20036;-48
2023/10/04 07:52:44;;;;;;;8.90;3.65;;;16.90;99.90;;;;;;5093947;28;20040;-46
2023/10/04 07:55:17;;;;;;;11.32;3.03;;;17.10;99.90;;;;;;5075740;28;20413;-47
2023/10/04 07:57:47;;;;;;;15.63;4.22;;;17.20;99.90;;;;;;5094080;28;20059;-46
2023/10/04 08:00:14;;;;;;;11.85;3.47;;;17.30;99.90;;;;;;5093659;28;20453;-46
2023/10/04 08:02:51;;;;;;;13.07;4.47;;;17.30;99.90;;;;;;5093313;28;20515;-46
2023/10/04 08:05:23;;;;;;;12.18;4.25;;;17.50;99.90;;;;;;5093443;28;20032;-48
2023/10/04 08:07:50;;;;;;;15.85;4.22;;;17.50;99.90;;;;;;5093444;28;20044;-47
2023/10/04 08:10:17;;;;;;;11.13;3.90;;;17.50;99.90;;;;;;5075585;28;20036;-46
2023/10/04 08:12:43;;;;;;;11.73;3.88;;;17.50;99.90;;;;;;5093453;28;20132;-47
2023/10/04 08:15:14;;;;;;;13.13;4.38;;;17.50;99.90;;;;;;5093504;28;20378;-46
2023/10/04 08:17:43;;;;;;;14.05;4.15;;;17.60;99.90;;;;;;5093186;28;20104;-47
2023/10/04 08:20:14;;;;;;;13.02;4.95;;;17.60;99.90;;;;;;5093235;28;20111;-46
2023/10/04 08:22:41;;;;;;;13.60;4.45;;;17.50;99.90;;;;;;5092935;28;20047;-46
2023/10/04 08:25:18;;;;;;;16.73;5.57;;;17.50;99.90;;;;;;5093298;28;20038;-46
2023/10/04 08:27:45;;;;;;;19.00;5.20;;;17.40;99.90;;;;;;5091928;28;20081;-46
2023/10/04 08:30:13;;;;;;;14.68;4.03;;;17.60;99.90;;;;;;5093169;28;20044;-46
2023/10/04 08:32:44;;;;;;;16.08;4.45;;;17.80;99.90;;;;;;5091937;28;20044;-48
2023/10/04 08:35:33;;;;;;;14.73;4.65;;;17.90;99.90;;;;;;5092833;28;20111;-47
2023/10/04 08:38:00;;;;;;;16.70;4.78;;;18.10;99.90;;;;;;5093089;28;20105;-47
2023/10/04 08:40:28;;;;;;;14.50;5.45;;;18.20;99.90;;;;;;5092732;28;20103;-47
2023/10/04 08:42:55;;;;;;;11.10;4.03;;;18.20;99.90;;;;;;5092735;28;20102;-50
2023/10/04 08:45:22;;;;;;;14.15;4.07;;;18.00;99.90;;;;;;5092591;28;20040;-45
2023/10/04 08:47:59;;;;;;;12.35;4.20;;;18.20;99.90;;;;;;5092740;28;20405;-45
2023/10/04 08:50:40;;;;;;;13.32;4.45;;;18.40;99.90;;;;;;5083270;28;20040;-47
2023/10/04 08:53:22;;;;;;;10.27;4.45;;;18.50;99.90;;;;;;5092704;28;20134;-46
2023/10/04 08:56:02;;;;;;;14.43;4.55;;;18.30;99.90;;;;;;5092266;28;20047;-49
2023/10/04 08:58:28;;;;;;;11.23;4.18;;;18.40;99.90;;;;;;5092685;28;20393;-48
2023/10/04 09:00:53;;;;;;;14.15;4.38;;;18.60;99.90;;;;;;5092422;28;20489;-46
2023/10/04 09:03:23;;;;;;;11.15;4.10;;;18.40;99.90;;;;;;5092415;28;20028;-47
2023/10/04 09:05:52;;;;;;;11.18;4.22;;;18.40;99.90;;;;;;5092434;28;20058;-45
2023/10/04 09:08:18;;;;;;;15.50;4.38;;;18.30;99.90;;;;;;5092639;28;20147;-45
2023/10/04 09:10:44;;;;;;;10.68;4.15;;;19.20;99.90;;;;;;5092244;28;20366;-45
2023/10/04 09:13:10;;;;;;;14.80;4.80;;;18.40;99.90;;;;;;5092269;28;20508;-46
2023/10/04 09:15:37;;;;;;;21.92;4.85;;;18.40;99.90;;;;;;5092128;28;20051;-49
2023/10/04 09:18:04;;;;;;;12.00;4.00;;;18.40;99.90;;;;;;5092207;28;20101;-50
2023/10/04 09:20:32;;;;;;;13.75;4.43;;;18.20;99.90;;;;;;5091747;28;20505;-49
2023/10/04 09:23:02;;;;;;;12.27;4.22;;;18.20;99.90;;;;;;5091901;28;20386;-48
2023/10/04 09:25:39;;;;;;;13.65;4.07;;;18.20;99.90;;;;;;5092173;28;20083;-48
2023/10/04 09:28:09;;;;;;;12.95;4.30;;;18.20;99.90;;;;;;5092087;28;20093;-49
2023/10/04 09:30:36;;;;;;;13.13;4.18;;;18.20;99.90;;;;;;5091879;28;20110;-48
2023/10/04 09:33:23;;;;;;;17.38;4.97;;;18.20;99.90;;;;;;5091715;28;20036;-46
2023/10/04 09:35:50;;;;;;;12.90;4.00;;;18.20;99.90;;;;;;5091873;28;20031;-46
2023/10/04 09:38:20;;;;;;;15.45;4.43;;;18.20;99.90;;;;;;5091917;28;20040;-46
2023/10/04 09:40:53;;;;;;;12.48;4.22;;;18.00;99.90;;;;;;5092020;28;20048;-48
2023/10/04 09:43:36;;;;;;;16.50;4.80;;;18.00;99.90;;;;;;5091432;28;20047;-45
2023/10/04 09:46:12;;;;;;;12.93;4.35;;;18.00;99.90;;;;;;5091672;28;20034;-48
2023/10/04 09:48:41;;;;;;;12.57;4.18;;;17.80;99.90;;;;;;5091808;28;20028;-47
2023/10/04 09:51:09;;;;;;;13.75;4.03;;;17.80;99.90;;;;;;5091818;28;20040;-46
2023/10/04 09:53:40;;;;;;;9.00;4.30;;;17.80;99.90;;;;;;5091490;28;20052;-47
2023/10/04 09:56:07;;;;;;;12.38;4.40;;;17.80;99.90;;;;;;5091659;28;20081;-48
2023/10/04 09:58:33;;;;;;;12.18;3.78;;;17.80;99.90;;;;;;5091343;28;20093;-48
2023/10/04 10:01:11;;;;;;;17.40;4.50;;;17.70;99.90;;;;;;5091629;28;20044;-48
2023/10/04 10:03:56;;;;;;;16.08;4.60;;;17.80;99.90;;;;;;5074067;28;20040;-48
2023/10/04 10:06:26;;;;;;;12.15;4.55;;;18.00;99.90;;;;;;5091467;28;20099;-45
2023/10/04 10:08:57;;;;;;;15.80;4.82;;;18.00;99.90;;;;;;5091286;28;20097;-47
2023/10/04 10:11:24;;;;;;;11.40;4.13;;;17.90;99.90;;;;;;5091711;28;20071;-46
2023/10/04 10:13:52;;;;;;;16.95;4.60;;;18.00;99.90;;;;;;5091421;28;20035;-44
2023/10/04 10:16:21;;;;;;;14.73;4.93;;;18.00;99.90;;;;;;5091532;28;20145;-48
2023/10/04 10:18:49;;;;;;;12.43;4.32;;;17.90;99.90;;;;;;5091771;28;20078;-46
2023/10/04 10:21:15;;;;;;;12.02;4.28;;;17.80;99.90;;;;;;5090885;28;20059;-47
2023/10/04 10:23:58;;;;;;;14.50;5.40;;;17.80;99.90;;;;;;5091273;28;20044;-46
2023/10/04 10:26:24;;;;;;;11.63;4.72;;;17.80;99.90;;;;;;5073355;28;20047;-45
2023/10/04 10:29:04;;;;;;;12.63;4.55;;;17.70;99.90;;;;;;5091486;28;20040;-45
2023/10/04 10:31:30;;;;;;;12.48;4.18;;;17.70;99.90;;;;;;5073168;28;20048;-46
2023/10/04 10:33:57;;;;;;;12.00;4.07;;;17.70;99.90;;;;;;5091185;28;20040;-46
2023/10/04 10:36:25;;;;;;;13.63;5.60;;;17.60;99.90;;;;;;5091355;28;20032;-46
2023/10/04 10:38:51;;;;;;;12.07;4.60;;;17.70;99.90;;;;;;5091713;28;20494;-48
2023/10/04 10:41:30;;;;;;;15.77;5.30;;;17.60;99.90;;;;;;5091327;28;20110;-49
2023/10/04 10:44:16;;;;;;;9.73;4.25;;;17.60;99.90;;;;;;5059815;28;20076;-50
2023/10/04 10:47:14;;;;;;;23.20;5.85;;;17.50;99.90;;;;;;5091233;28;20050;-49
2023/10/04 10:49:41;;;;;;;14.13;4.38;;;17.50;99.90;;;;;;5091211;28;20381;-46
2023/10/04 10:52:30;;;;;;;12.85;4.45;;;17.50;99.90;;;;;;5090944;28;20083;-51
2023/10/04 10:54:57;;;;;;;13.93;5.30;;;17.40;99.90;;;;;;5091973;28;20055;-47
2023/10/04 10:57:25;;;;;;;16.77;5.10;;;17.40;99.90;;;;;;5094933;28;20280;-49
2023/10/04 10:59:56;;;;;;;15.63;4.68;;;17.30;99.90;;;;;;5094661;28;20032;-45
2023/10/04 11:02:22;;;;;;;14.98;5.10;;;17.20;99.90;;;;;;5094609;28;20074;-48
2023/10/04 11:04:49;;;;;;;14.95;5.50;;;17.20;99.90;;;;;;5094534;28;20469;-49
2023/10/04 11:07:17;;;;;;;13.07;4.72;;;17.10;99.90;;;;;;5094428;28;20105;-47
2023/10/04 11:09:48;;;;;;;14.25;5.18;;;17.10;99.90;;;;;;5094649;28;20032;-49
2023/10/04 11:12:17;;;;;;;19.80;5.82;;;17.10;99.90;;;;;;5094761;28;20115;-48
2023/10/04 11:14:43;;;;;;;17.33;4.60;;;17.10;99.90;;;;;;5094399;28;20051;-47
2023/10/04 11:17:10;;;;;;;16.70;5.57;;;17.10;99.90;;;;;;5094554;28;20427;-49
2023/10/04 11:19:36;;;;;;;23.55;5.22;;;17.10;99.90;;;;;;5094294;28;20043;-47
2023/10/04 11:22:02;;;;;;;16.20;5.72;;;17.00;99.90;;;;;;5093216;28;20048;-49
2023/10/04 11:24:31;;;;;;;15.77;5.15;;;17.20;99.90;;;;;;5114886;28;20428;-47
2023/10/04 11:26:57;;;;;;;12.32;5.00;;;17.20;99.90;;;;;;5114690;28;20043;-47
2023/10/04 11:29:27;;;;;;;15.60;4.88;;;17.20;99.90;;;;;;5114743;28;20039;-46
2023/10/04 11:31:55;;;;;;;15.45;4.85;;;17.30;99.90;;;;;;5114476;28;20068;-48
2023/10/04 11:34:21;;;;;;;19.25;5.35;;;17.30;99.90;;;;;;5114624;28;20050;-47
2023/10/04 11:36:47;;;;;;;15.45;5.40;;;17.40;99.90;;;;;;5114222;28;20066;-54
2023/10/04 11:39:18;;;;;;;12.13;5.20;;;17.40;99.90;;;;;;5114667;28;20043;-49
2023/10/04 11:41:50;;;;;;;12.80;5.13;;;17.40;99.90;;;;;;5114279;28;20082;-48
2023/10/04 11:44:19;;;;;;;11.50;4.85;;;17.40;99.90;;;;;;5114318;28;20067;-48
2023/10/04 11:46:59;;;;;;;11.82;4.70;;;17.40;99.90;;;;;;5114117;28;20095;-47
2023/10/04 11:49:28;;;;;;;10.27;4.35;;;17.40;99.90;;;;;;5114435;28;20422;-47
2023/10/04 11:51:58;;;;;;;15.88;5.05;;;17.40;99.90;;;;;;5114178;28;20118;-49
2023/10/04 11:54:26;;;;;;;14.13;5.15;;;17.40;99.90;;;;;;5096155;28;20487;-48
2023/10/04 11:56:52;;;;;;;13.17;4.27;;;17.40;99.90;;;;;;5113822;28;20039;-49
2023/10/04 11:59:29;;;;;;;12.85;4.63;;;17.40;99.90;;;;;;5114006;28;20050;-48
2023/10/04 12:01:55;;;;;;;12.43;4.65;;;17.40;99.90;;;;;;5114244;28;20075;-46
2023/10/04 12:04:21;;;;;;;11.95;5.72;;;17.40;99.90;;;;;;5114360;28;20095;-49
2023/10/04 12:07:09;;;;;;;9.05;4.05;;;17.40;99.90;;;;;;5113813;28;20509;-46
2023/10/04 12:09:36;;;;;;;11.15;4.32;;;17.50;99.90;;;;;;5101297;28;20032;-46
2023/10/04 12:12:05;;;;;;;13.60;4.28;;;17.50;99.90;;;;;;5113965;28;20047;-47
2023/10/04 12:14:34;;;;;;;12.48;4.38;;;17.50;99.90;;;;;;5114222;28;20518;-45
2023/10/04 12:17:03;;;;;;;9.75;3.88;;;17.50;99.90;;;;;;5095405;28;20058;-47
2023/10/04 12:19:34;;;;;;;12.23;4.78;;;17.50;99.90;;;;;;5113476;28;20035;-45
2023/10/04 12:22:08;;;;;;;14.63;3.45;;;17.40;99.90;;;;;;5100213;28;20044;-46
2023/10/04 12:24:38;;;;;;;13.50;3.58;;;17.50;99.90;;;;;;5092980;28;20048;-45
2023/10/04 12:27:08;;;;;;;13.50;4.00;;;17.50;99.90;;;;;;5093429;28;20036;-46
2023/10/04 12:29:38;;;;;;;10.63;3.47;;;17.50;99.90;;;;;;5093231;28;20055;-46
2023/10/04 12:32:06;;;;;;;12.27;3.63;;;17.50;99.90;;;;;;5093040;28;20044;-46
2023/10/04 12:34:33;;;;;;;14.95;4.10;;;17.50;99.90;;;;;;5092850;28;20036;-45
2023/10/04 12:37:00;;;;;;;9.40;3.15;;;17.50;99.90;;;;;;5092732;28;20031;-48
2023/10/04 12:39:26;;;;;;;9.50;3.47;;;17.60;99.90;;;;;;5092824;28;20040;-45
2023/10/04 12:41:55;;;;;;;10.43;3.25;;;17.60;99.90;;;;;;5074853;28;20036;-46
2023/10/04 12:44:21;;;;;;;11.18;3.28;;;17.60;99.90;;;;;;5092772;28;20040;-48
2023/10/04 12:46:50;;;;;;;13.93;3.58;;;17.70;99.90;;;;;;5092534;28;20047;-51
2023/10/04 12:49:18;;;;;;;11.55;3.88;;;17.70;99.90;;;;;;5092638;28;20039;-45
2023/10/04 12:51:46;;;;;;;15.85;4.25;;;17.80;99.90;;;;;;5092478;28;20051;-46
2023/10/04 12:54:11;;;;;;;10.45;3.30;;;17.80;99.90;;;;;;5092703;28;20117;-47